Time;durP1;ratioP1;P1;durP2;ratioP2;P2;SDS_P1;SDS_P2;PMS_P1;PMS_P2;Temp;Humidity;BMP_temperature;BMP_pressure;BME280_temperature;BME280_humidity;BME280_pressure;Samples;Min_cycle;Max_cycle;Signal;HPM_P1;HPM_P2
2021/03/28 00:01:02;;;;;;;14.55;9.58;;;;;;;4.70;72.06;99753.20;2188851;81;21317;-82
2021/03/28 00:04:04;;;;;;;13.10;7.25;;;;;;;4.65;72.15;99746.22;2188812;81;21462;-82
2021/03/28 00:07:05;;;;;;;8.60;5.03;;;;;;;4.58;72.00;99748.95;2187808;81;21293;-83
2021/03/28 00:10:07;;;;;;;8.90;4.83;;;;;;;4.48;71.98;99743.16;2181304;82;21276;-83
2021/03/28 00:13:09;;;;;;;6.80;4.80;;;;;;;4.38;72.12;99742.17;2181185;82;21329;-83
2021/03/28 00:16:10;;;;;;;8.38;4.85;;;;;;;4.31;72.16;99744.06;2181564;82;21643;-82
2021/03/28 00:19:12;;;;;;;12.45;4.92;;;;;;;4.24;72.78;99743.69;2181670;82;21333;-83
2021/03/28 00:22:13;;;;;;;8.35;5.40;;;;;;;4.15;72.21;99743.08;2181484;82;21277;-83
2021/03/28 00:25:15;;;;;;;7.75;4.80;;;;;;;4.02;72.16;99731.47;2181575;82;21139;-82
2021/03/28 00:28:16;;;;;;;7.22;4.62;;;;;;;3.90;72.29;99731.91;2181734;82;21321;-82
2021/03/28 00:31:18;;;;;;;8.33;4.58;;;;;;;3.79;72.42;99721.98;2181890;82;21321;-81
2021/03/28 00:34:20;;;;;;;8.03;4.20;;;;;;;3.65;72.44;99719.91;2181833;82;21309;-82
2021/03/28 00:37:22;;;;;;;9.28;5.30;;;;;;;3.52;72.40;99724.33;2181671;82;21294;-82
2021/03/28 00:40:23;;;;;;;8.90;4.15;;;;;;;3.40;72.62;99722.63;2181611;82;21328;-83
2021/03/28 00:43:25;;;;;;;9.53;4.50;;;;;;;3.28;72.58;99719.60;2181786;82;21298;-83
2021/03/28 00:46:27;;;;;;;6.80;4.53;;;;;;;3.17;73.17;99724.71;2181537;82;21290;-82
2021/03/28 00:49:28;;;;;;;5.55;3.70;;;;;;;3.06;73.32;99729.35;2181498;82;21325;-82
2021/03/28 00:52:30;;;;;;;6.83;4.30;;;;;;;2.95;73.22;99739.63;2181632;82;21194;-82
2021/03/28 00:55:31;;;;;;;10.55;4.97;;;;;;;2.83;73.51;99744.72;2182340;82;22278;-82
2021/03/28 00:58:33;;;;;;;10.38;5.10;;;;;;;2.72;73.66;99742.48;2182695;82;21294;-83
2021/03/28 01:01:35;;;;;;;14.00;6.53;;;;;;;2.65;74.13;99740.80;2182244;82;21310;-83
2021/03/28 01:04:37;;;;;;;13.00;6.28;;;;;;;2.58;74.16;99751.66;2181016;82;21674;-82
2021/03/28 01:07:38;;;;;;;9.68;5.58;;;;;;;2.57;74.22;99746.95;2182463;81;21304;-81
2021/03/28 01:10:40;;;;;;;9.70;4.92;;;;;;;2.52;74.33;99759.36;2188530;81;21171;-81
2021/03/28 01:13:42;;;;;;;10.40;5.12;;;;;;;2.46;74.53;99759.75;2188395;81;21170;-81
2021/03/28 01:16:44;;;;;;;7.40;5.00;;;;;;;2.41;74.68;99755.38;2188400;81;21659;-81
2021/03/28 01:19:45;;;;;;;8.75;5.35;;;;;;;2.36;75.71;99763.42;2188611;81;21566;-82
2021/03/28 01:22:47;;;;;;;10.68;6.35;;;;;;;2.30;75.85;99770.77;2188507;81;21135;-82
2021/03/28 01:25:48;;;;;;;10.93;5.65;;;;;;;2.24;75.31;99783.16;2188707;81;21324;-82
2021/03/28 01:28:50;;;;;;;12.28;5.97;;;;;;;2.23;75.79;99782.80;2188490;81;21210;-82
2021/03/28 01:31:52;;;;;;;7.53;5.08;;;;;;;2.26;75.38;99784.34;2188147;81;21301;-81
2021/03/28 01:34:54;;;;;;;9.38;5.22;;;;;;;2.30;75.42;99788.40;2188533;81;21135;-83
2021/03/28 01:37:55;;;;;;;7.45;5.15;;;;;;;2.31;74.85;99783.59;2188709;81;21292;-82
2021/03/28 01:40:57;;;;;;;10.68;5.45;;;;;;;2.31;75.12;99792.64;2188305;81;21174;-82
2021/03/28 01:43:58;;;;;;;6.83;4.17;;;;;;;2.34;75.18;99787.25;2188483;81;21337;-82
2021/03/28 01:47:00;;;;;;;12.45;5.72;;;;;;;2.34;75.26;99794.19;2188564;81;21662;-82
2021/03/28 01:50:02;;;;;;;10.82;6.95;;;;;;;2.30;74.80;99794.03;2188694;81;21317;-82
2021/03/28 01:53:03;;;;;;;8.83;4.85;;;;;;;2.26;74.96;99789.05;2188686;81;21301;-82
2021/03/28 01:56:05;;;;;;;10.32;5.40;;;;;;;2.22;74.99;99792.77;2188576;81;21289;-82
2021/03/28 01:59:07;;;;;;;10.65;5.12;;;;;;;2.27;74.93;99789.41;2188375;81;21109;-82
2021/03/28 02:02:08;;;;;;;9.33;4.83;;;;;;;2.27;74.94;99799.74;2188565;81;21177;-82
2021/03/28 02:05:10;;;;;;;5.90;4.53;;;;;;;2.24;74.60;99801.25;2188602;81;21304;-82
2021/03/28 02:08:12;;;;;;;8.50;5.42;;;;;;;2.24;74.78;99799.95;2186368;81;21317;-83
2021/03/28 02:11:14;;;;;;;8.40;5.05;;;;;;;2.19;74.58;99806.34;2181521;82;21163;-84
2021/03/28 02:14:15;;;;;;;6.12;4.72;;;;;;;2.11;75.10;99803.45;2181359;82;21147;-83
2021/03/28 02:17:17;;;;;;;9.35;5.00;;;;;;;2.08;75.12;99803.17;2181330;82;21269;-83
2021/03/28 02:20:19;;;;;;;9.45;5.45;;;;;;;2.11;75.48;99803.45;2181543;82;21269;-83
2021/03/28 02:23:21;;;;;;;6.37;4.47;;;;;;;2.16;75.42;99801.38;2181336;82;21131;-82
2021/03/28 02:26:22;;;;;;;8.13;4.75;;;;;;;2.14;74.93;99805.83;2181551;82;21317;-82
2021/03/28 02:29:24;;;;;;;8.08;5.22;;;;;;;2.13;74.86;99796.42;2181689;82;21316;-82
2021/03/28 02:32:26;;;;;;;9.65;5.15;;;;;;;2.07;74.80;99796.34;2181512;82;21131;-83
2021/03/28 02:35:27;;;;;;;9.85;4.85;;;;;;;2.03;75.35;99793.61;2181646;82;21292;-82
2021/03/28 02:38:29;;;;;;;4.83;3.95;;;;;;;2.04;75.63;99795.27;2181605;82;21135;-83
2021/03/28 02:41:30;;;;;;;8.08;4.37;;;;;;;1.97;75.29;99790.95;2181336;82;21297;-82
2021/03/28 02:44:32;;;;;;;9.55;5.40;;;;;;;1.93;75.12;99800.30;2181347;82;21178;-82
2021/03/28 02:47:36;;;;;;;10.25;4.80;;;;;;;1.87;74.97;99808.42;2181388;82;21118;-82
2021/03/28 02:50:37;;;;;;;6.15;4.28;;;;;;;1.83;75.51;99802.64;2181273;82;21273;-82
2021/03/28 02:53:38;;;;;;;6.50;3.90;;;;;;;1.82;75.17;99805.30;2181556;82;21147;-82
2021/03/28 02:56:40;;;;;;;10.58;5.60;;;;;;;1.74;75.12;99808.39;2181465;82;21706;-83
2021/03/28 02:59:41;;;;;;;11.33;5.40;;;;;;;1.71;75.28;99805.52;2181539;82;21718;-82
2021/03/28 03:02:43;;;;;;;11.05;5.50;;;;;;;1.71;75.38;99802.94;2181394;82;21285;-82
2021/03/28 03:05:45;;;;;;;8.03;5.25;;;;;;;1.69;75.38;99815.12;2181626;82;21186;-81
2021/03/28 03:08:46;;;;;;;10.45;5.45;;;;;;;1.68;75.29;99817.34;2181245;81;21305;-82
2021/03/28 03:11:48;;;;;;;7.97;4.85;;;;;;;1.63;75.48;99816.78;2181610;82;21305;-81
2021/03/28 03:14:49;;;;;;;6.28;5.40;;;;;;;1.63;75.54;99822.41;2181463;82;21570;-82
2021/03/28 03:17:51;;;;;;;12.13;5.42;;;;;;;1.61;75.36;99825.56;2181629;82;21528;-82
2021/03/28 03:20:53;;;;;;;7.25;4.87;;;;;;;1.60;75.43;99835.52;2181529;82;21721;-83
2021/03/28 03:23:55;;;;;;;7.95;4.97;;;;;;;1.58;75.74;99836.91;2182109;82;21701;-82
2021/03/28 03:26:57;;;;;;;8.03;5.28;;;;;;;1.55;75.50;99844.83;2182367;82;21167;-82
2021/03/28 03:29:58;;;;;;;9.13;5.97;;;;;;;1.50;75.55;99847.34;2182566;82;21297;-77
2021/03/28 03:33:00;;;;;;;8.98;5.05;;;;;;;1.45;75.66;99841.63;2182334;82;21715;-81
2021/03/28 03:36:02;;;;;;;11.93;6.33;;;;;;;1.37;75.80;99839.51;2181232;82;21179;-82
2021/03/28 03:39:03;;;;;;;14.83;6.12;;;;;;;1.30;75.80;99855.02;2181423;82;21163;-82
2021/03/28 03:42:05;;;;;;;9.95;5.30;;;;;;;1.24;75.89;99854.09;2181718;82;21146;-81
2021/03/28 03:45:07;;;;;;;11.03;5.65;;;;;;;1.21;75.96;99855.58;2181467;82;21286;-80
2021/03/28 03:48:08;;;;;;;9.88;6.25;;;;;;;1.19;75.94;99866.00;2181358;82;21194;-80
2021/03/28 03:51:10;;;;;;;53.50;21.33;;;;;;;1.16;76.04;99864.87;2181315;82;21187;-82
2021/03/28 03:54:12;;;;;;;30.80;11.93;;;;;;;1.09;76.00;99862.28;2181634;82;22121;-82
2021/03/28 03:57:13;;;;;;;13.93;7.50;;;;;;;1.05;76.04;99871.13;2181626;82;21119;-81
2021/03/28 04:00:15;;;;;;;18.17;7.53;;;;;;;0.99;76.04;99864.58;2181659;82;21284;-82
2021/03/28 04:03:17;;;;;;;12.40;7.97;;;;;;;0.92;76.15;99867.64;2181777;82;21713;-81
2021/03/28 04:06:18;;;;;;;10.60;5.10;;;;;;;0.88;76.29;99875.16;2181432;82;21182;-80
2021/03/28 04:09:20;;;;;;;7.80;5.70;;;;;;;0.85;76.54;99876.19;2184820;81;21312;-81
2021/03/28 04:12:21;;;;;;;15.80;6.50;;;;;;;0.81;76.67;99885.00;2188448;81;21245;-81
2021/03/28 04:15:23;;;;;;;11.90;5.37;;;;;;;0.76;76.64;99884.45;2188449;81;21260;-81
2021/03/28 04:18:24;;;;;;;11.30;5.80;;;;;;;0.74;76.76;99890.98;2188450;81;21161;-81
2021/03/28 04:21:26;;;;;;;8.70;5.72;;;;;;;0.70;76.96;99892.53;2188665;81;21186;-80
2021/03/28 04:24:27;;;;;;;11.48;6.78;;;;;;;0.68;77.38;99896.95;2188555;81;21701;-81
2021/03/28 04:27:29;;;;;;;18.92;7.60;;;;;;;0.66;77.21;99903.48;2188382;81;21277;-81
2021/03/28 04:30:30;;;;;;;13.53;8.18;;;;;;;0.66;77.24;99910.39;2188447;81;21305;-80
2021/03/28 04:33:32;;;;;;;16.50;7.62;;;;;;;0.65;77.46;99910.03;2188437;81;21203;-80
2021/03/28 04:36:33;;;;;;;14.18;8.03;;;;;;;0.63;77.83;99906.68;2188669;81;21289;-83
2021/03/28 04:39:35;;;;;;;14.60;7.53;;;;;;;0.62;77.76;99912.30;2188623;81;21273;-82
2021/03/28 04:42:38;;;;;;;12.58;6.33;;;;;;;0.63;77.56;99916.99;2188822;81;21335;-82
2021/03/28 04:45:39;;;;;;;11.50;7.10;;;;;;;0.64;78.38;99918.22;2188893;81;21301;-82
2021/03/28 04:48:43;;;;;;;11.85;7.83;;;;;;;0.72;78.03;99913.43;2188612;81;21320;-83
2021/03/28 04:51:49;;;;;;;16.60;7.42;;;;;;;0.80;78.38;99916.86;2188644;81;21325;-84
2021/03/28 04:54:47;;;;;;;12.40;7.10;;;;;;;0.96;78.20;99927.13;2188945;81;21555;-84
2021/03/28 04:57:49;;;;;;;12.47;7.72;;;;;;;1.12;78.02;99924.03;2188517;81;21284;-82
2021/03/28 05:00:51;;;;;;;13.08;8.08;;;;;;;1.34;77.99;99933.90;2188176;81;21166;-81
2021/03/28 05:03:52;;;;;;;19.00;10.88;;;;;;;1.57;77.54;99928.66;2188758;81;21151;-83
2021/03/28 05:06:54;;;;;;;27.30;12.40;;;;;;;1.80;77.39;99932.41;2189027;81;21373;-83
2021/03/28 05:09:55;;;;;;;16.73;10.03;;;;;;;1.97;77.09;99936.08;2188555;80;21752;-84
2021/03/28 05:12:57;;;;;;;21.52;10.75;;;;;;;2.14;76.79;99935.03;2188404;81;21131;-82
2021/03/28 05:15:58;;;;;;;18.32;9.73;;;;;;;2.29;76.54;99948.28;2188634;81;21312;-82
2021/03/28 05:19:00;;;;;;;12.35;7.15;;;;;;;2.45;76.41;99939.90;2188380;81;21139;-81
2021/03/28 05:22:02;;;;;;;13.38;7.53;;;;;;;2.62;76.05;99949.16;2188353;81;21340;-81
2021/03/28 05:25:03;;;;;;;11.50;7.60;;;;;;;2.85;75.99;99949.80;2188742;81;21126;-83
2021/03/28 05:28:05;;;;;;;12.18;7.72;;;;;;;3.01;75.42;99960.42;2188343;81;21753;-81
2021/03/28 05:31:06;;;;;;;17.45;8.50;;;;;;;3.09;75.29;99969.34;2188399;81;21166;-82
2021/03/28 05:34:08;;;;;;;13.83;7.60;;;;;;;3.17;75.19;99974.01;2188369;81;21665;-82
2021/03/28 05:37:10;;;;;;;16.00;8.28;;;;;;;3.16;74.85;99979.30;2188433;81;21765;-82
2021/03/28 05:40:12;;;;;;;14.43;9.45;;;;;;;3.16;74.84;99982.70;2188484;81;22002;-81
2021/03/28 05:43:13;;;;;;;14.35;8.73;;;;;;;3.20;74.92;99988.50;2188386;81;21281;-84
2021/03/28 05:46:15;;;;;;;14.47;9.15;;;;;;;3.26;74.96;99994.11;2188174;81;21273;-84
2021/03/28 05:49:20;;;;;;;10.68;7.35;;;;;;;3.39;74.73;99995.43;2187829;81;21147;-84
2021/03/28 05:52:21;;;;;;;11.85;7.60;;;;;;;3.49;74.53;100011.18;2188328;81;21584;-83
2021/03/28 05:55:23;;;;;;;13.15;8.08;;;;;;;3.60;75.37;100004.80;2188343;81;21131;-83
2021/03/28 05:58:25;;;;;;;10.95;7.90;;;;;;;3.77;74.69;100007.08;2188411;81;21288;-85
2021/03/28 06:01:26;;;;;;;11.35;6.87;;;;;;;3.86;74.20;100001.73;2188823;81;21329;-87
2021/03/28 06:04:28;;;;;;;10.25;5.80;;;;;;;4.00;74.32;100005.48;2188800;81;21316;-86
2021/03/28 06:07:30;;;;;;;10.78;7.30;;;;;;;4.17;73.57;100007.73;2188334;81;21652;-84
2021/03/28 06:10:31;;;;;;;9.65;7.00;;;;;;;4.40;75.09;100010.02;2183526;81;21167;-84
2021/03/28 06:13:33;;;;;;;10.05;7.08;;;;;;;4.72;73.17;100012.06;2181632;82;21139;-84
2021/03/28 06:16:35;;;;;;;11.03;7.78;;;;;;;4.87;70.16;100016.63;2181692;82;21259;-90
2021/03/28 06:19:36;;;;;;;13.05;8.45;;;;;;;5.05;72.91;100013.98;2181576;82;21171;-86
2021/03/28 06:22:38;;;;;;;11.18;8.40;;;;;;;5.15;70.88;100013.66;2181368;82;21465;-89
2021/03/28 06:25:39;;;;;;;12.60;8.35;;;;;;;5.27;70.97;100031.39;2181689;82;21289;-87
2021/03/28 06:28:41;;;;;;;9.70;8.00;;;;;;;5.25;70.19;100032.81;2181578;82;21286;-84
2021/03/28 06:31:42;;;;;;;9.15;7.90;;;;;;;5.28;70.38;100031.75;2181625;82;21621;-86
2021/03/28 06:34:44;;;;;;;12.95;7.25;;;;;;;5.24;68.95;100033.75;2181976;82;21350;-86
2021/03/28 06:37:45;;;;;;;14.05;8.03;;;;;;;5.06;68.28;100035.11;2181716;82;21289;-88
2021/03/28 06:40:47;;;;;;;10.48;7.28;;;;;;;5.12;69.41;100038.53;2182174;82;21289;-82
2021/03/28 06:43:52;;;;;;;11.43;8.60;;;;;;;5.22;69.28;100032.22;2181586;82;21305;-86
2021/03/28 06:46:53;;;;;;;14.65;8.13;;;;;;;5.23;69.23;100034.70;2181621;82;21301;-84
2021/03/28 06:49:55;;;;;;;11.40;8.73;;;;;;;5.27;69.55;100036.12;2181468;82;21163;-81
2021/03/28 06:52:57;;;;;;;13.72;8.85;;;;;;;5.40;68.96;100037.35;2181280;82;21293;-82
2021/03/28 06:55:58;;;;;;;13.65;7.95;;;;;;;5.48;68.47;100030.26;2181321;82;21312;-82
2021/03/28 06:59:00;;;;;;;9.93;8.45;;;;;;;5.49;68.12;100044.46;2181490;82;21325;-83
2021/03/28 07:02:02;;;;;;;10.55;8.68;;;;;;;5.49;67.89;100039.73;2181794;82;21313;-85
2021/03/28 07:05:03;;;;;;;12.73;8.93;;;;;;;5.41;68.46;100039.83;2181220;82;21143;-85
2021/03/28 07:08:05;;;;;;;11.10;7.22;;;;;;;5.40;68.20;100050.34;2181522;82;21698;-85
2021/03/28 07:11:06;;;;;;;11.00;7.62;;;;;;;5.38;68.27;100050.42;2181583;81;21338;-85
2021/03/28 07:14:08;;;;;;;15.28;8.95;;;;;;;5.39;68.38;100058.61;2181250;82;21187;-85
2021/03/28 07:17:10;;;;;;;13.15;9.73;;;;;;;5.36;68.45;100055.39;2181425;82;21309;-83
2021/03/28 07:20:11;;;;;;;14.07;9.00;;;;;;;5.42;68.34;100052.34;2181329;82;21269;-82
2021/03/28 07:23:13;;;;;;;10.00;8.28;;;;;;;5.45;67.49;100061.20;2181455;82;21135;-83
2021/03/28 07:26:15;;;;;;;12.10;8.00;;;;;;;5.47;66.72;100058.01;2181474;82;21151;-82
2021/03/28 07:29:16;;;;;;;11.15;7.87;;;;;;;5.43;67.50;100061.79;2181690;82;21155;-82
2021/03/28 07:32:18;;;;;;;11.15;7.53;;;;;;;5.50;67.71;100064.30;2181329;82;21312;-82
2021/03/28 07:35:20;;;;;;;10.25;6.92;;;;;;;5.57;67.04;100056.38;2181555;82;21248;-83
2021/03/28 07:38:21;;;;;;;7.50;5.83;;;;;;;5.66;67.18;100067.37;2181644;82;21301;-82
2021/03/28 07:41:23;;;;;;;9.75;7.45;;;;;;;5.88;67.14;100052.78;2181669;82;21293;-82
2021/03/28 07:44:24;;;;;;;9.48;7.25;;;;;;;6.03;66.26;100076.32;2181742;82;21737;-81
2021/03/28 07:47:26;;;;;;;9.70;7.47;;;;;;;6.11;66.46;100077.86;2181804;82;21325;-80
2021/03/28 07:50:27;;;;;;;13.98;9.18;;;;;;;6.22;66.54;100082.27;2181836;82;21281;-82
2021/03/28 07:53:29;;;;;;;14.25;8.80;;;;;;;6.31;66.23;100079.39;2181499;82;21131;-83
2021/03/28 07:56:31;;;;;;;11.20;7.05;;;;;;;6.33;65.70;100080.95;2181630;82;21774;-83
2021/03/28 07:59:32;;;;;;;9.38;5.83;;;;;;;6.47;65.17;100077.27;2181617;82;21757;-82
2021/03/28 08:02:34;;;;;;;7.80;5.22;;;;;;;6.71;64.25;100076.64;2181772;82;21183;-82
2021/03/28 08:05:35;;;;;;;7.72;6.15;;;;;;;6.85;63.92;100084.64;2181683;82;21293;-81
2021/03/28 08:08:37;;;;;;;12.25;7.55;;;;;;;7.01;64.08;100090.28;2181702;82;21722;-82
2021/03/28 08:11:39;;;;;;;12.73;7.20;;;;;;;7.01;62.40;100090.76;2187715;81;21317;-81
2021/03/28 08:14:41;;;;;;;11.43;6.25;;;;;;;7.13;63.43;100094.52;2188552;81;21174;-83
2021/03/28 08:17:42;;;;;;;5.35;4.70;;;;;;;7.45;62.53;100088.93;2188469;81;21309;-82
2021/03/28 08:20:44;;;;;;;11.10;6.30;;;;;;;7.56;61.95;100090.17;2189117;81;21497;-82
2021/03/28 08:23:45;;;;;;;8.78;6.10;;;;;;;7.63;60.52;100088.72;2188938;81;21276;-83
2021/03/28 08:26:47;;;;;;;8.65;5.90;;;;;;;7.69;61.74;100089.04;2188766;81;21293;-83
2021/03/28 08:29:48;;;;;;;10.18;6.12;;;;;;;7.71;60.94;100091.52;2188699;81;21605;-82
2021/03/28 08:32:50;;;;;;;11.20;5.30;;;;;;;7.74;60.72;100096.94;2188733;81;21191;-83
2021/03/28 08:35:52;;;;;;;10.58;5.67;;;;;;;7.73;59.45;100092.20;2188801;81;21312;-81
2021/03/28 08:38:54;;;;;;;9.05;6.20;;;;;;;7.72;59.65;100089.73;2189545;81;21155;-83
2021/03/28 08:41:55;;;;;;;9.68;5.80;;;;;;;7.77;59.88;100097.50;2188451;80;21329;-83
2021/03/28 08:44:57;;;;;;;7.50;4.42;;;;;;;7.86;60.21;100095.46;2188597;81;21150;-83
2021/03/28 08:47:59;;;;;;;10.13;4.60;;;;;;;8.01;58.70;100089.89;2188899;81;21258;-83
2021/03/28 08:51:01;;;;;;;7.22;3.85;;;;;;;8.06;57.00;100082.52;2188603;81;21202;-83
2021/03/28 08:54:02;;;;;;;5.12;4.08;;;;;;;8.20;58.27;100093.41;2189032;81;21313;-82
2021/03/28 08:57:04;;;;;;;6.45;4.90;;;;;;;8.42;57.77;100094.23;2188827;81;21370;-82
2021/03/28 09:00:05;;;;;;;7.35;4.50;;;;;;;8.57;57.39;100096.81;2188647;81;21155;-83
2021/03/28 09:03:07;;;;;;;6.08;4.80;;;;;;;8.72;56.14;100083.73;2188450;81;21269;-87
2021/03/28 09:06:08;;;;;;;6.78;4.72;;;;;;;8.74;57.29;100090.95;2188564;80;21313;-81
2021/03/28 09:09:10;;;;;;;8.15;5.47;;;;;;;8.77;56.35;100085.92;2188607;81;21207;-81
2021/03/28 09:12:12;;;;;;;9.33;5.50;;;;;;;8.85;54.82;100082.16;2188676;80;21190;-82
2021/03/28 09:15:13;;;;;;;6.03;4.35;;;;;;;9.02;56.77;100083.29;2188628;81;21280;-81
2021/03/28 09:18:15;;;;;;;14.05;6.08;;;;;;;9.12;55.79;100095.39;2188612;81;21301;-83
2021/03/28 09:21:16;;;;;;;11.15;6.10;;;;;;;9.13;55.87;100088.37;2188526;81;21344;-82
2021/03/28 09:24:18;;;;;;;14.13;7.15;;;;;;;9.06;55.33;100102.49;2188790;81;21796;-80
2021/03/28 09:27:20;;;;;;;10.68;5.62;;;;;;;8.97;55.13;100099.39;2188831;81;21678;-81
2021/03/28 09:30:22;;;;;;;10.72;5.30;;;;;;;8.96;53.78;100089.05;2188974;81;21653;-82
2021/03/28 09:33:24;;;;;;;8.98;5.85;;;;;;;8.91;52.90;100094.70;2190200;81;21316;-81
2021/03/28 09:36:25;;;;;;;6.53;4.58;;;;;;;8.78;53.70;100101.97;2190798;81;21139;-85
2021/03/28 09:39:27;;;;;;;11.97;4.90;;;;;;;8.80;53.83;100098.73;2190913;81;21709;-79
2021/03/28 09:42:29;;;;;;;6.95;4.70;;;;;;;8.82;54.17;100104.16;2188952;81;21756;-82
2021/03/28 09:45:31;;;;;;;8.05;4.00;;;;;;;8.82;53.58;100099.42;2188258;81;21332;-85
2021/03/28 09:48:32;;;;;;;5.78;4.42;;;;;;;8.78;52.51;100096.75;2188548;81;21788;-83
2021/03/28 09:51:34;;;;;;;9.00;4.50;;;;;;;8.78;53.11;100098.05;2188613;80;21277;-90
2021/03/28 09:54:37;;;;;;;12.07;5.87;;;;;;;8.81;52.94;100098.59;2188574;81;21329;-86
2021/03/28 09:57:38;;;;;;;7.17;4.83;;;;;;;8.93;51.98;100099.78;2188348;81;21190;-86
2021/03/28 10:00:40;;;;;;;5.12;4.50;;;;;;;8.91;52.21;100103.84;2188508;81;21190;-85
2021/03/28 10:03:42;;;;;;;6.30;4.20;;;;;;;8.97;53.30;100102.00;2189061;81;21509;-86
2021/03/28 10:06:43;;;;;;;10.90;5.17;;;;;;;9.07;52.48;100102.84;2188534;81;21289;-86
2021/03/28 10:09:45;;;;;;;9.08;5.53;;;;;;;9.00;51.08;100102.20;2188365;81;21558;-86
2021/03/28 10:12:47;;;;;;;8.08;5.20;;;;;;;8.81;49.99;100095.98;2188398;81;21297;-86
2021/03/28 10:15:48;;;;;;;14.55;5.78;;;;;;;8.81;52.00;100109.05;2188511;81;21304;-87
2021/03/28 10:18:50;;;;;;;9.25;5.12;;;;;;;8.89;51.85;100097.93;2188545;81;21633;-87
2021/03/28 10:21:51;;;;;;;5.87;4.12;;;;;;;9.03;51.84;100100.61;2188681;81;21312;-87
2021/03/28 10:24:53;;;;;;;6.92;3.80;;;;;;;9.11;50.89;100092.92;2188955;81;21154;-86
2021/03/28 10:27:55;;;;;;;4.90;3.90;;;;;;;9.19;50.07;100089.15;2188665;81;21338;-86
2021/03/28 10:30:56;;;;;;;7.53;4.72;;;;;;;9.43;50.53;100097.89;2188270;81;21174;-86
2021/03/28 10:33:58;;;;;;;11.63;6.20;;;;;;;9.66;49.64;100098.41;2188446;81;21332;-86
2021/03/28 10:36:59;;;;;;;10.98;6.22;;;;;;;9.75;48.69;100103.28;2188378;81;21709;-85
2021/03/28 10:40:01;;;;;;;12.23;8.73;;;;;;;9.74;48.74;100104.25;2188236;81;21147;-86
2021/03/28 10:43:03;;;;;;;14.63;7.22;;;;;;;9.77;49.26;100094.80;2188212;81;21162;-86
2021/03/28 10:46:04;;;;;;;7.20;4.65;;;;;;;9.89;49.53;100093.21;2188389;81;21300;-87
2021/03/28 10:49:06;;;;;;;5.35;4.20;;;;;;;10.07;50.04;100092.48;2188658;81;21313;-86
2021/03/28 10:52:08;;;;;;;5.60;3.75;;;;;;;10.32;49.19;100089.22;2188470;81;22259;-86
2021/03/28 10:55:09;;;;;;;5.25;3.67;;;;;;;10.56;48.63;100102.30;2188386;80;21145;-86
2021/03/28 10:58:11;;;;;;;9.03;4.70;;;;;;;10.66;46.22;100102.58;2188494;81;21331;-86
2021/03/28 11:01:12;;;;;;;7.10;3.83;;;;;;;10.59;46.56;100103.30;2188362;81;21769;-85
2021/03/28 11:04:14;;;;;;;5.60;3.60;;;;;;;10.61;46.47;100098.28;2189006;80;21182;-85
2021/03/28 11:07:16;;;;;;;7.03;4.25;;;;;;;10.62;46.36;100103.03;2189852;81;21332;-89
2021/03/28 11:10:17;;;;;;;9.10;5.60;;;;;;;10.45;45.75;100104.63;2187071;81;21168;-82
2021/03/28 11:13:19;;;;;;;9.10;5.12;;;;;;;10.06;46.14;100101.27;2181121;82;21293;-83
2021/03/28 11:16:21;;;;;;;4.53;4.12;;;;;;;9.74;46.91;100094.61;2181368;82;21199;-86
2021/03/28 11:19:22;;;;;;;12.90;5.92;;;;;;;9.40;46.62;100091.62;2181662;82;21312;-83
2021/03/28 11:22:24;;;;;;;10.60;4.95;;;;;;;9.18;47.58;100092.73;2181833;82;21324;-83
2021/03/28 11:25:26;;;;;;;9.35;5.58;;;;;;;9.07;48.13;100091.08;2181454;82;21283;-84
2021/03/28 11:28:27;;;;;;;9.95;4.28;;;;;;;9.06;48.40;100090.73;2181456;82;21313;-83
2021/03/28 11:31:29;;;;;;;18.48;6.95;;;;;;;9.15;45.94;100077.81;2181708;82;21293;-86
2021/03/28 11:34:38;;;;;;;10.55;4.37;;;;;;;9.32;47.25;100077.92;2181628;82;21277;-84
2021/03/28 11:37:43;;;;;;;8.48;4.70;;;;;;;9.47;46.94;100077.03;2181401;82;21301;-84
2021/03/28 11:40:44;;;;;;;7.17;2.85;;;;;;;9.53;46.87;100073.88;2181578;82;21634;-87
2021/03/28 11:43:48;;;;;;;5.30;3.45;;;;;;;9.72;45.36;100071.70;2181616;82;21369;-89
2021/03/28 11:46:50;;;;;;;7.05;3.52;;;;;;;9.90;45.03;100075.23;2181524;82;21190;-85
2021/03/28 11:49:51;;;;;;;5.58;3.67;;;;;;;10.12;43.25;100085.01;2181602;82;21583;-84
2021/03/28 11:52:53;;;;;;;4.45;3.33;;;;;;;10.25;42.72;100076.39;2181299;82;21304;-83
2021/03/28 11:55:55;;;;;;;5.47;3.70;;;;;;;10.44;43.37;100077.61;2181571;82;21359;-83
2021/03/28 11:58:57;;;;;;;5.12;3.67;;;;;;;10.62;41.79;100075.04;2181791;82;21337;-83
2021/03/28 12:01:59;;;;;;;5.67;3.22;;;;;;;10.68;42.85;100072.30;2182060;82;21187;-84
2021/03/28 12:05:01;;;;;;;5.15;3.58;;;;;;;10.70;43.02;100073.82;2181285;82;21163;-84
2021/03/28 12:08:03;;;;;;;5.92;4.00;;;;;;;10.71;43.27;100073.34;2181403;82;21281;-82
2021/03/28 12:11:04;;;;;;;5.12;3.30;;;;;;;10.72;43.29;100074.98;2184112;80;21202;-84
2021/03/28 12:14:06;;;;;;;5.22;3.00;;;;;;;10.66;42.81;100075.56;2188819;81;21308;-84
2021/03/28 12:17:17;;;;;;;8.53;3.20;;;;;;;10.59;43.04;100081.86;2188723;81;21304;-83
2021/03/28 12:20:21;;;;;;;4.37;2.65;;;;;;;10.53;41.49;100074.61;2188758;81;21353;-85
2021/03/28 12:23:30;;;;;;;6.80;3.35;;;;;;;10.57;42.15;100079.88;2188563;81;21182;-85
2021/03/28 12:26:34;;;;;;;4.08;3.02;;;;;;;10.78;42.58;100074.37;2188341;81;21306;-86
2021/03/28 12:29:36;;;;;;;5.65;3.75;;;;;;;10.98;41.96;100082.95;2188730;81;21670;-82
2021/03/28 12:32:37;;;;;;;7.72;3.40;;;;;;;11.12;41.48;100078.48;2188433;81;21304;-82
2021/03/28 12:35:39;;;;;;;7.40;3.42;;;;;;;11.37;41.73;100079.05;2188642;81;21301;-84
2021/03/28 12:38:41;;;;;;;5.12;3.02;;;;;;;11.61;40.78;100067.92;2188678;81;21162;-84
2021/03/28 12:41:42;;;;;;;5.92;2.60;;;;;;;11.74;41.01;100071.45;2188725;81;21186;-85
2021/03/28 12:44:44;;;;;;;8.43;3.65;;;;;;;11.68;40.49;100068.11;2188777;81;21189;-83
2021/03/28 12:47:46;;;;;;;6.17;3.20;;;;;;;11.59;40.38;100077.72;2158492;81;21309;-85
2021/03/28 12:50:47;;;;;;;6.12;3.33;;;;;;;11.44;40.43;100063.53;2188485;81;21293;-83
2021/03/28 12:53:49;;;;;;;4.70;3.10;;;;;;;11.44;40.70;100065.33;2188288;81;21143;-83
2021/03/28 12:56:51;;;;;;;5.35;2.80;;;;;;;11.36;39.77;100068.70;2188216;80;21179;-83
2021/03/28 12:59:57;;;;;;;5.62;3.25;;;;;;;11.29;39.60;100068.48;2188459;81;21293;-83
2021/03/28 13:02:59;;;;;;;6.25;3.83;;;;;;;11.27;40.27;100070.92;2188314;81;21273;-84
2021/03/28 13:06:00;;;;;;;6.12;3.98;;;;;;;11.22;40.80;100070.05;2188425;81;21186;-84
2021/03/28 13:09:04;;;;;;;8.25;4.05;;;;;;;11.19;39.78;100080.84;2188491;81;21321;-83
2021/03/28 13:12:05;;;;;;;5.60;3.12;;;;;;;11.09;40.55;100071.75;2184164;81;21258;-87
2021/03/28 13:15:07;;;;;;;8.70;4.28;;;;;;;11.15;39.91;100061.13;2182188;82;21177;-84
2021/03/28 13:18:08;;;;;;;4.25;3.30;;;;;;;11.19;39.86;100077.41;2182361;82;21761;-84
2021/03/28 13:21:10;;;;;;;8.13;3.37;;;;;;;11.24;39.95;100075.96;2182031;82;21155;-86
2021/03/28 13:24:11;;;;;;;5.37;3.17;;;;;;;11.36;39.91;100068.22;2181469;82;21301;-85
2021/03/28 13:27:16;;;;;;;6.83;3.72;;;;;;;11.51;39.81;100065.03;2181169;82;21281;-86
2021/03/28 13:30:18;;;;;;;4.22;2.90;;;;;;;11.55;39.25;100061.14;2181418;82;21321;-85
2021/03/28 13:33:20;;;;;;;8.10;4.30;;;;;;;11.48;39.81;100062.23;2181435;82;21301;-85
2021/03/28 13:36:26;;;;;;;4.75;2.80;;;;;;;11.39;39.93;100064.46;2181528;82;21693;-84
2021/03/28 13:39:27;;;;;;;6.60;3.40;;;;;;;11.44;39.91;100059.59;2181476;82;21262;-84
2021/03/28 13:42:29;;;;;;;4.05;2.40;;;;;;;11.42;40.27;100062.84;2181303;82;21297;-85
2021/03/28 13:45:34;;;;;;;5.97;2.80;;;;;;;11.37;39.36;100057.23;2158047;82;21324;-84
2021/03/28 13:48:36;;;;;;;5.58;3.33;;;;;;;11.28;39.78;100066.84;2157776;82;21337;-84
2021/03/28 13:51:39;;;;;;;4.80;3.35;;;;;;;11.25;39.67;100063.22;2181651;82;21181;-84
2021/03/28 13:54:41;;;;;;;8.08;3.87;;;;;;;11.08;39.24;100070.11;2181749;82;21742;-86
2021/03/28 13:57:45;;;;;;;3.92;3.45;;;;;;;11.01;39.99;100070.36;2181656;82;21312;-86
2021/03/28 14:00:46;;;;;;;9.13;3.72;;;;;;;10.97;39.93;100076.03;2181653;82;21301;-86
2021/03/28 14:03:48;;;;;;;8.05;3.85;;;;;;;10.86;39.24;100063.16;2181459;82;21593;-85
2021/03/28 14:06:49;;;;;;;5.40;2.95;;;;;;;10.83;40.09;100065.11;2181978;82;21293;-86
2021/03/28 14:09:51;;;;;;;3.85;2.83;;;;;;;10.92;40.43;100071.25;2181659;82;21297;-85
2021/03/28 14:12:53;;;;;;;5.58;3.92;;;;;;;10.96;40.54;100067.35;2187007;81;21317;-85